createdAt,value
2023-02-14T00:02:14.421Z,82.60
2023-02-14T00:12:13.541Z,82.80
2023-02-14T00:22:12.604Z,82.70
2023-02-14T00:32:11.397Z,82.70
2023-02-14T00:42:11.397Z,82.90
2023-02-14T00:52:10.769Z,83.00
2023-02-14T01:02:09.686Z,83.10
2023-02-14T01:12:08.657Z,83.40
2023-02-14T01:22:07.497Z,83.80
2023-02-14T01:32:06.806Z,83.90
2023-02-14T01:42:06.895Z,84.00
2023-02-14T01:52:05.671Z,83.70
2023-02-14T02:02:04.771Z,83.60
2023-02-14T02:12:03.565Z,83.30
2023-02-14T02:22:02.521Z,83.20
2023-02-14T02:32:01.811Z,83.40
2023-02-14T02:42:00.801Z,83.50
2023-02-14T02:52:17.701Z,83.80
2023-02-14T03:02:16.709Z,83.90
2023-02-14T03:12:15.768Z,84.10
2023-02-14T03:22:15.018Z,84.30
2023-02-14T03:32:15.406Z,84.20
2023-02-14T03:42:15.864Z,84.10
2023-02-14T03:52:14.726Z,83.80
2023-02-14T04:02:13.573Z,83.80
2023-02-14T04:12:12.620Z,83.80
2023-02-14T04:22:11.681Z,83.90
2023-02-14T04:32:10.795Z,84.30
2023-02-14T04:42:09.565Z,84.60
2023-02-14T04:52:08.787Z,85.00
2023-02-14T05:02:07.712Z,85.00
2023-02-14T05:12:06.677Z,85.30
2023-02-14T05:22:05.732Z,85.60
2023-02-14T05:32:04.802Z,85.50
2023-02-14T05:42:03.883Z,85.80
2023-02-14T05:52:02.672Z,86.00
2023-02-14T06:02:01.812Z,86.30
2023-02-14T06:12:00.776Z,87.10
2023-02-14T06:21:59.703Z,87.70
2023-02-14T06:32:00.607Z,88.40
2023-02-14T06:41:59.749Z,88.60
2023-02-14T06:51:58.795Z,88.70
2023-02-14T07:01:57.849Z,89.10
2023-02-14T07:11:56.767Z,89.30
2023-02-14T07:21:55.729Z,89.70
2023-02-14T07:31:54.826Z,90.20
2023-02-14T07:41:53.717Z,90.20
2023-02-14T07:51:52.708Z,90.40
2023-02-14T08:01:51.735Z,90.60
2023-02-14T08:12:08.996Z,90.80
2023-02-14T08:22:07.846Z,91.00
2023-02-14T08:32:06.990Z,91.10
2023-02-14T08:42:05.701Z,91.00
2023-02-14T08:52:04.816Z,91.00
2023-02-14T09:02:03.816Z,90.80
2023-02-14T09:12:02.878Z,90.70
2023-02-14T09:22:03.434Z,90.50
2023-02-14T09:32:02.914Z,90.60
2023-02-14T09:42:02.204Z,90.30
2023-02-14T09:52:00.890Z,90.20
2023-02-14T10:01:59.991Z,89.50
2023-02-14T10:11:58.765Z,88.10
2023-02-14T10:21:57.817Z,87.90
2023-02-14T10:31:57.080Z,86.30
2023-02-14T10:41:55.655Z,86.50
2023-02-14T10:51:54.970Z,85.20
2023-02-14T11:01:53.687Z,85.10
2023-02-14T11:11:52.751Z,84.40
2023-02-14T11:21:51.797Z,84.00
2023-02-14T11:31:51.478Z,83.50
2023-02-14T11:41:51.128Z,83.70
2023-02-14T11:51:49.903Z,82.10
2023-02-14T12:01:48.909Z,82.60
2023-02-14T12:11:47.727Z,81.60
2023-02-14T12:21:46.980Z,80.00
2023-02-14T12:31:45.998Z,80.40
2023-02-14T12:41:44.866Z,78.30
2023-02-14T12:51:44.025Z,78.80
2023-02-14T13:01:43.033Z,78.50
2023-02-14T13:11:42.136Z,76.90
2023-02-14T13:21:40.846Z,74.50
2023-02-14T13:31:40.018Z,73.60
2023-02-14T13:41:40.843Z,74.10
2023-02-14T13:51:43.095Z,73.40
2023-02-14T14:01:42.392Z,73.20
2023-02-14T14:11:40.789Z,72.20
2023-02-14T14:21:39.881Z,69.70
2023-02-14T14:31:38.916Z,70.30
2023-02-14T14:41:37.918Z,69.10
2023-02-14T14:51:37.073Z,69.30
2023-02-14T15:01:36.126Z,67.50
2023-02-14T15:11:53.081Z,67.10
2023-02-14T15:21:51.949Z,67.70
2023-02-14T15:31:51.000Z,66.00
2023-02-14T15:41:50.541Z,66.40
2023-02-14T15:51:50.130Z,66.70
2023-02-14T16:01:49.100Z,66.40
2023-02-14T16:11:48.282Z,66.60
2023-02-14T16:21:47.026Z,67.00
2023-02-14T16:32:06.165Z,67.30
2023-02-14T16:41:46.969Z,67.50
2023-02-14T16:51:45.913Z,67.70
2023-02-14T17:01:45.383Z,67.80
2023-02-14T17:11:43.903Z,68.30
2023-02-14T17:21:43.053Z,68.70
2023-02-14T17:31:42.194Z,68.90
2023-02-14T17:41:41.049Z,69.30
2023-02-14T17:51:40.094Z,69.80
2023-02-14T18:01:39.213Z,70.40
2023-02-14T18:11:38.014Z,70.90
2023-02-14T18:21:38.997Z,72.40
2023-02-14T18:31:38.121Z,72.70
2023-02-14T18:41:37.231Z,73.10
2023-02-14T18:51:36.906Z,73.40
2023-02-14T19:01:36.369Z,73.50
2023-02-14T19:11:35.125Z,73.80
2023-02-14T19:21:34.472Z,74.10
2023-02-14T19:31:35.222Z,74.50
2023-02-14T19:41:34.405Z,75.00
2023-02-14T19:51:33.480Z,74.90
2023-02-14T20:01:32.279Z,75.00
2023-02-14T20:11:31.080Z,75.20
2023-02-14T20:21:30.103Z,75.40
2023-02-14T20:31:29.229Z,75.90
2023-02-14T20:41:28.184Z,76.20
2023-02-14T20:51:27.292Z,76.40
2023-02-14T21:01:26.359Z,76.70
2023-02-14T21:11:26.310Z,76.80
2023-02-14T21:21:26.355Z,77.00
2023-02-14T21:31:25.445Z,77.20
2023-02-14T21:41:24.327Z,77.40
2023-02-14T21:51:23.138Z,78.00
2023-02-14T22:01:22.216Z,78.60
2023-02-14T22:11:21.239Z,78.90
2023-02-14T22:21:20.117Z,79.10
2023-02-14T22:31:19.190Z,79.00
2023-02-14T22:41:18.197Z,79.20
2023-02-14T22:51:17.217Z,79.60
2023-02-14T23:01:16.368Z,79.50
2023-02-14T23:11:15.233Z,79.60
2023-02-14T23:21:32.437Z,79.60
2023-02-14T23:31:31.321Z,79.70
2023-02-14T23:41:48.240Z,79.60
2023-02-14T23:51:47.191Z,79.40
